createdAt,value
2018-03-02T00:00:52.479Z,-7.40
2018-03-02T00:03:19.091Z,-7.40
2018-03-02T00:05:45.290Z,-7.40
2018-03-02T00:08:11.529Z,-7.40
2018-03-02T00:10:37.767Z,-7.40
2018-03-02T00:13:03.974Z,-7.40
2018-03-02T00:15:30.192Z,-7.40
2018-03-02T00:17:56.419Z,-7.50
2018-03-02T00:20:22.671Z,-7.50
2018-03-02T00:22:48.888Z,-7.50
2018-03-02T00:25:15.083Z,-7.40
2018-03-02T00:27:41.328Z,-7.50
2018-03-02T00:30:07.558Z,-7.50
2018-03-02T00:32:33.788Z,-7.50
2018-03-02T00:35:00.784Z,-7.50
2018-03-02T00:37:27.018Z,-7.50
2018-03-02T00:39:53.232Z,-7.50
2018-03-02T00:42:20.240Z,-7.50
2018-03-02T00:44:47.196Z,-7.50
2018-03-02T00:47:13.424Z,-7.50
2018-03-02T00:49:39.640Z,-7.50
2018-03-02T00:52:05.914Z,-7.50
2018-03-02T00:54:32.119Z,-7.50
2018-03-02T00:56:58.354Z,-7.50
2018-03-02T00:59:25.343Z,-7.50
2018-03-02T01:01:51.570Z,-7.50
2018-03-02T01:04:17.787Z,-7.50
2018-03-02T01:06:44.732Z,-7.60
2018-03-02T01:09:11.695Z,-7.60
2018-03-02T01:11:38.656Z,-7.60
2018-03-02T01:14:05.607Z,-7.60
2018-03-02T01:16:32.561Z,-7.60
2018-03-02T01:18:58.773Z,-7.60
2018-03-02T01:21:25.021Z,-7.60
2018-03-02T01:23:51.263Z,-7.60
2018-03-02T01:26:17.817Z,-7.60
2018-03-02T01:28:44.117Z,-7.60
2018-03-02T01:31:10.363Z,-7.60
2018-03-02T01:33:36.581Z,-7.60
2018-03-02T01:36:02.851Z,-7.60
2018-03-02T01:38:29.095Z,-7.60
2018-03-02T01:40:55.355Z,-7.60
2018-03-02T01:43:21.577Z,-7.60
2018-03-02T01:45:47.806Z,-7.60
2018-03-02T01:48:14.087Z,-7.50
2018-03-02T01:50:40.298Z,-7.50
2018-03-02T01:53:06.531Z,-7.50
2018-03-02T01:55:32.757Z,-7.60
2018-03-02T01:57:58.976Z,-7.50
2018-03-02T02:00:25.191Z,-7.50
2018-03-02T02:02:51.426Z,-7.50
2018-03-02T02:05:17.651Z,-7.50
2018-03-02T02:07:43.877Z,-7.60
2018-03-02T02:10:10.661Z,-7.60
2018-03-02T02:12:36.870Z,-7.60
2018-03-02T02:15:03.086Z,-7.60
2018-03-02T02:17:29.332Z,-7.60
2018-03-02T02:19:55.549Z,-7.60
2018-03-02T02:22:22.537Z,-7.60
2018-03-02T02:24:48.748Z,-7.60
2018-03-02T02:27:15.692Z,-7.60
2018-03-02T02:29:42.694Z,-7.60
2018-03-02T02:32:09.627Z,-7.60
2018-03-02T02:34:35.850Z,-7.60
2018-03-02T02:37:02.865Z,-7.50
2018-03-02T02:39:29.152Z,-7.60
2018-03-02T02:41:56.098Z,-7.50
2018-03-02T02:44:23.113Z,-7.50
2018-03-02T02:46:49.350Z,-7.50
2018-03-02T02:49:15.561Z,-7.50
2018-03-02T02:51:41.806Z,-7.50
2018-03-02T02:54:08.064Z,-7.50
2018-03-02T02:56:34.304Z,-7.60
2018-03-02T02:59:00.518Z,-7.60
2018-03-02T03:01:26.770Z,-7.50
2018-03-02T03:03:52.994Z,-7.60
2018-03-02T03:06:19.937Z,-7.60
2018-03-02T03:08:46.176Z,-7.60
2018-03-02T03:11:13.136Z,-7.60
2018-03-02T03:13:40.126Z,-7.60
2018-03-02T03:16:06.400Z,-7.60
2018-03-02T03:18:32.628Z,-7.60
2018-03-02T03:20:58.844Z,-7.60
2018-03-02T03:23:25.050Z,-7.60
2018-03-02T03:25:51.275Z,-7.60
2018-03-02T03:28:17.483Z,-7.60
2018-03-02T03:30:43.690Z,-7.60
2018-03-02T03:33:10.655Z,-7.60
2018-03-02T03:35:36.851Z,-7.60
2018-03-02T03:38:03.092Z,-7.60
2018-03-02T03:40:29.299Z,-7.60
2018-03-02T03:42:55.543Z,-7.60
2018-03-02T03:45:21.759Z,-7.60
2018-03-02T03:47:48.019Z,-7.50
2018-03-02T03:50:14.255Z,-7.50
2018-03-02T03:52:40.475Z,-7.50
2018-03-02T03:55:06.709Z,-7.60
2018-03-02T03:57:33.667Z,-7.60
2018-03-02T04:00:00.619Z,-7.60
2018-03-02T04:02:27.581Z,-7.50
2018-03-02T04:04:54.527Z,-7.60
2018-03-02T04:07:21.489Z,-7.60
2018-03-02T04:09:48.423Z,-7.50
2018-03-02T04:12:14.626Z,-7.50
2018-03-02T04:14:40.924Z,-7.50
2018-03-02T04:17:07.094Z,-7.50
2018-03-02T04:19:33.342Z,-7.50
2018-03-02T04:21:59.542Z,-7.50
2018-03-02T04:24:26.517Z,-7.50
2018-03-02T04:26:52.755Z,-7.50
2018-03-02T04:29:19.713Z,-7.50
2018-03-02T04:31:46.732Z,-7.40
2018-03-02T04:34:12.942Z,-7.40
2018-03-02T04:36:39.183Z,-7.40
2018-03-02T04:39:05.386Z,-7.40
2018-03-02T04:41:32.357Z,-7.40
2018-03-02T04:43:58.554Z,-7.40
2018-03-02T04:46:24.772Z,-7.40
2018-03-02T04:48:50.999Z,-7.40
2018-03-02T04:51:17.197Z,-7.40
2018-03-02T04:53:44.146Z,-7.40
2018-03-02T04:56:10.355Z,-7.40
2018-03-02T04:58:36.548Z,-7.40
2018-03-02T05:01:02.786Z,-7.40
2018-03-02T05:03:29.014Z,-7.40
2018-03-02T05:05:55.971Z,-7.40
2018-03-02T05:08:22.918Z,-7.40
2018-03-02T05:10:49.136Z,-7.40
2018-03-02T05:13:15.336Z,-7.50
2018-03-02T05:15:41.546Z,-7.50
2018-03-02T05:18:08.492Z,-7.60
2018-03-02T05:20:35.522Z,-7.60
2018-03-02T05:23:01.815Z,-7.60
2018-03-02T05:25:28.027Z,-7.60
2018-03-02T05:27:54.569Z,-7.60
2018-03-02T05:30:20.829Z,-7.70
2018-03-02T05:32:47.794Z,-7.70
2018-03-02T05:35:14.028Z,-7.70
2018-03-02T05:37:41.028Z,-5.50
2018-03-02T05:40:07.262Z,-5.50
2018-03-02T05:42:33.487Z,-3.80
2018-03-02T05:44:59.703Z,-2.70
2018-03-02T05:47:26.640Z,-1.30
2018-03-02T05:49:52.862Z,-1.40
2018-03-02T05:52:19.093Z,-1.40
2018-03-02T05:54:45.315Z,-1.80
2018-03-02T05:57:11.536Z,-2.40
2018-03-02T05:59:37.750Z,-3.20
2018-03-02T06:02:03.986Z,-3.90
2018-03-02T06:04:30.200Z,-4.70
2018-03-02T06:06:56.434Z,-5.20
2018-03-02T06:09:22.647Z,-5.60
2018-03-02T06:11:48.932Z,-5.90
2018-03-02T06:14:15.194Z,-6.10
2018-03-02T06:16:41.400Z,-6.30
2018-03-02T06:19:07.623Z,-6.50
2018-03-02T06:21:33.875Z,-6.60
2018-03-02T06:24:00.138Z,-6.70
2018-03-02T06:26:26.361Z,-6.80
2018-03-02T06:28:52.588Z,-6.80
2018-03-02T06:31:18.795Z,-6.80
2018-03-02T06:33:45.763Z,-6.90
2018-03-02T06:36:11.989Z,-6.90
2018-03-02T06:38:38.953Z,-6.90
2018-03-02T06:41:05.171Z,-6.90
2018-03-02T06:43:38.387Z,-6.70
2018-03-02T06:46:05.360Z,-6.40
2018-03-02T06:48:31.563Z,-6.50
2018-03-02T06:50:57.795Z,-6.30
2018-03-02T06:53:24.024Z,-6.30
2018-03-02T06:55:50.246Z,-6.20
2018-03-02T06:58:16.477Z,-6.30
2018-03-02T07:00:42.704Z,-6.20
2018-03-02T07:03:09.063Z,-6.20
2018-03-02T07:05:35.288Z,-6.10
2018-03-02T07:08:01.531Z,-6.10
2018-03-02T07:10:27.761Z,-6.10
2018-03-02T07:12:54.774Z,-6.10
2018-03-02T07:15:20.995Z,-6.10
2018-03-02T07:17:47.201Z,-6.20
2018-03-02T07:20:14.191Z,-6.20
2018-03-02T07:22:40.394Z,-6.20
2018-03-02T07:25:07.410Z,-6.20
2018-03-02T07:27:33.675Z,-6.20
2018-03-02T07:30:00.656Z,-6.20
2018-03-02T07:32:27.632Z,-6.20
2018-03-02T07:35:00.835Z,-6.20
2018-03-02T07:37:27.061Z,-6.20
2018-03-02T07:39:53.299Z,-6.20
2018-03-02T07:42:20.325Z,-6.00
2018-03-02T07:44:46.532Z,-6.10
2018-03-02T07:47:12.771Z,-6.00
2018-03-02T07:49:39.008Z,-5.90
2018-03-02T07:52:05.245Z,-5.70
2018-03-02T07:54:31.472Z,-5.50
2018-03-02T07:56:57.684Z,-5.40
2018-03-02T07:59:24.663Z,-5.40
2018-03-02T08:01:50.884Z,-5.40
2018-03-02T08:04:17.988Z,-5.40
2018-03-02T08:06:44.938Z,-5.30
2018-03-02T08:09:11.152Z,-5.30
2018-03-02T08:11:37.385Z,-5.20
2018-03-02T08:14:04.397Z,-5.10
2018-03-02T08:16:30.619Z,-5.10
2018-03-02T08:18:56.827Z,-5.10
2018-03-02T08:21:23.790Z,-5.00
2018-03-02T08:23:50.743Z,-4.90
2018-03-02T08:26:17.726Z,-4.80
2018-03-02T08:28:43.971Z,-4.80
2018-03-02T08:31:10.194Z,-4.70
2018-03-02T08:33:36.403Z,-4.70
2018-03-02T08:36:02.625Z,-4.70
2018-03-02T08:38:28.862Z,-4.70
2018-03-02T08:40:55.084Z,-4.60
2018-03-02T08:43:21.666Z,-4.60
2018-03-02T08:45:47.872Z,-4.50
2018-03-02T08:48:14.109Z,-4.50
2018-03-02T08:50:40.379Z,-4.50
2018-03-02T08:53:06.591Z,-4.50
2018-03-02T08:55:33.184Z,-4.50
2018-03-02T08:57:59.384Z,-4.50
2018-03-02T09:00:25.591Z,-4.40
2018-03-02T09:02:51.813Z,-4.40
2018-03-02T09:05:18.779Z,-4.30
2018-03-02T09:07:45.775Z,-4.30
2018-03-02T09:10:12.035Z,-4.30
2018-03-02T09:12:38.975Z,-4.20
2018-03-02T09:15:05.263Z,-4.20
2018-03-02T09:17:31.465Z,-4.20
2018-03-02T09:19:58.495Z,-4.10
2018-03-02T09:22:25.431Z,-4.00
2018-03-02T09:24:52.417Z,-3.90
2018-03-02T09:27:18.635Z,-3.90
2018-03-02T09:29:45.611Z,-3.70
2018-03-02T09:32:11.845Z,-3.70
2018-03-02T09:34:38.063Z,-3.60
2018-03-02T09:37:05.019Z,-3.40
2018-03-02T09:39:32.009Z,-3.30
2018-03-02T09:41:58.227Z,-3.40
2018-03-02T09:44:25.193Z,-3.10
2018-03-02T09:46:51.436Z,-3.20
2018-03-02T09:49:17.658Z,-3.10
2018-03-02T09:51:44.608Z,-3.00
2018-03-02T09:54:11.604Z,-2.90
2018-03-02T09:56:37.856Z,-2.90
2018-03-02T09:59:04.115Z,-2.80
2018-03-02T10:01:31.072Z,-2.70
2018-03-02T10:03:57.284Z,-2.70
2018-03-02T10:06:23.525Z,-2.60
2018-03-02T10:08:49.731Z,-2.50
2018-03-02T10:11:16.707Z,-2.20
2018-03-02T10:13:42.941Z,-2.20
2018-03-02T10:16:09.455Z,-2.00
2018-03-02T10:18:35.654Z,-1.80
2018-03-02T10:21:01.934Z,-1.60
2018-03-02T10:23:28.188Z,-1.40
2018-03-02T10:25:55.162Z,-1.00
2018-03-02T10:28:22.118Z,-1.00
2018-03-02T10:30:49.072Z,-1.00
2018-03-02T10:33:16.031Z,-1.00
2018-03-02T10:35:43.062Z,-0.90
2018-03-02T10:38:09.260Z,-0.90
2018-03-02T10:40:35.512Z,-0.80
2018-03-02T10:43:01.721Z,-0.70
2018-03-02T10:45:27.952Z,-0.50
2018-03-02T10:47:54.919Z,-0.40
2018-03-02T10:50:21.439Z,-0.40
2018-03-02T10:52:48.396Z,-0.20
2018-03-02T10:55:14.615Z,-0.20
2018-03-02T10:57:40.846Z,-0.10
2018-03-02T11:00:07.072Z,0.10
2018-03-02T11:02:33.336Z,0.20
2018-03-02T11:05:05.742Z,0.40
2018-03-02T11:07:32.724Z,0.60
2018-03-02T11:09:58.964Z,0.60
2018-03-02T11:12:25.961Z,0.90
2018-03-02T11:14:52.217Z,0.80
2018-03-02T11:17:18.455Z,1.00
2018-03-02T11:19:44.734Z,1.10
2018-03-02T11:22:11.685Z,1.30
2018-03-02T11:24:38.674Z,1.50
2018-03-02T11:27:04.889Z,1.40
2018-03-02T11:29:31.837Z,1.80
2018-03-02T11:31:58.061Z,1.80
2018-03-02T11:34:25.755Z,2.10
2018-03-02T11:36:52.803Z,2.20
2018-03-02T11:39:19.015Z,2.20
2018-03-02T11:41:45.259Z,2.20
2018-03-02T11:44:11.472Z,2.30
2018-03-02T11:46:37.708Z,2.40
2018-03-02T11:49:03.967Z,2.40
2018-03-02T11:51:30.182Z,2.60
2018-03-02T11:53:56.417Z,2.70
2018-03-02T11:56:22.621Z,2.80
2018-03-02T11:58:48.852Z,2.80
2018-03-02T12:01:15.077Z,2.80
2018-03-02T12:03:41.320Z,2.90
2018-03-02T12:06:08.284Z,3.20
2018-03-02T12:08:34.501Z,3.20
2018-03-02T12:11:00.733Z,3.30
2018-03-02T12:13:26.962Z,3.40
2018-03-02T12:15:53.184Z,3.30
2018-03-02T12:18:20.154Z,3.40
2018-03-02T12:20:46.389Z,3.40
2018-03-02T12:23:13.344Z,3.60
2018-03-02T12:25:39.568Z,3.60
2018-03-02T12:28:06.545Z,3.70
2018-03-02T12:30:33.518Z,3.50
2018-03-02T12:32:59.756Z,3.50
2018-03-02T12:35:25.958Z,3.50
2018-03-02T12:37:52.198Z,3.40
2018-03-02T12:40:18.443Z,3.40
2018-03-02T12:42:44.672Z,3.50
2018-03-02T12:45:10.908Z,3.60
2018-03-02T12:47:37.148Z,3.80
2018-03-02T12:50:03.377Z,4.00
2018-03-02T12:52:29.610Z,4.00
2018-03-02T12:54:55.856Z,3.90
2018-03-02T12:57:22.070Z,3.70
2018-03-02T12:59:48.359Z,3.70
2018-03-02T13:02:14.629Z,3.60
2018-03-02T13:04:40.875Z,3.40
2018-03-02T13:07:07.103Z,3.30
2018-03-02T13:09:34.086Z,3.10
2018-03-02T13:12:00.322Z,3.10
2018-03-02T13:14:26.552Z,3.10
2018-03-02T13:16:52.783Z,3.20
2018-03-02T13:19:19.787Z,3.40
2018-03-02T13:21:45.985Z,3.30
2018-03-02T13:24:12.988Z,3.30
2018-03-02T13:26:51.601Z,3.30
2018-03-02T13:29:17.879Z,3.90
2018-03-02T13:31:44.152Z,4.70
2018-03-02T13:34:23.411Z,5.40
2018-03-02T13:36:49.638Z,5.40
2018-03-02T13:39:28.915Z,6.10
2018-03-02T13:42:10.065Z,6.10
2018-03-02T13:44:37.067Z,6.20
2018-03-02T13:47:03.287Z,6.20
2018-03-02T13:49:41.752Z,5.70
2018-03-02T13:52:08.019Z,5.10
2018-03-02T13:54:34.267Z,4.70
2018-03-02T13:57:12.710Z,4.50
2018-03-02T13:59:39.689Z,4.30
2018-03-02T14:02:05.981Z,4.30
2018-03-02T14:04:44.511Z,4.10
2018-03-02T14:07:10.772Z,4.00
2018-03-02T14:09:37.787Z,4.00
2018-03-02T14:12:04.029Z,4.00
2018-03-02T14:14:30.293Z,4.00
2018-03-02T14:16:56.538Z,3.80
2018-03-02T14:19:22.808Z,3.80
2018-03-02T14:21:49.807Z,3.70
2018-03-02T14:24:16.061Z,3.70
2018-03-02T14:26:42.295Z,3.70
2018-03-02T14:29:08.526Z,3.60
2018-03-02T14:31:34.759Z,3.50
2018-03-02T14:34:00.988Z,3.20
2018-03-02T14:36:27.236Z,2.90
2018-03-02T14:38:53.458Z,2.60
2018-03-02T14:41:19.689Z,2.40
2018-03-02T14:43:46.673Z,1.80
2018-03-02T14:46:12.903Z,1.70
2018-03-02T14:48:39.142Z,1.50
2018-03-02T14:51:05.447Z,1.20
2018-03-02T14:53:31.718Z,1.10
2018-03-02T14:55:58.678Z,0.90
2018-03-02T14:58:24.933Z,0.80
2018-03-02T15:00:51.148Z,0.80
2018-03-02T15:03:18.128Z,0.70
2018-03-02T15:05:44.403Z,0.70
2018-03-02T15:08:10.639Z,0.80
2018-03-02T15:10:36.930Z,0.90
2018-03-02T15:13:03.915Z,0.70
2018-03-02T15:15:30.142Z,0.70
2018-03-02T15:17:56.394Z,0.60
2018-03-02T15:20:22.655Z,0.40
2018-03-02T15:22:48.880Z,0.20
2018-03-02T15:25:15.113Z,0.00
2018-03-02T15:27:41.347Z,-0.10
2018-03-02T15:30:07.582Z,-0.20
2018-03-02T15:32:33.820Z,-0.20
2018-03-02T15:35:00.060Z,-0.30
2018-03-02T15:37:27.054Z,-0.30
2018-03-02T15:39:53.282Z,-0.30
2018-03-02T15:42:19.526Z,-0.30
2018-03-02T15:44:45.762Z,-0.30
2018-03-02T15:47:11.981Z,-0.30
2018-03-02T15:49:38.964Z,-0.40
2018-03-02T15:52:05.216Z,-0.40
2018-03-02T15:54:31.450Z,-0.50
2018-03-02T15:56:57.680Z,-0.50
2018-03-02T15:59:23.932Z,-0.50
2018-03-02T16:01:50.196Z,-0.50
2018-03-02T16:04:16.420Z,-0.50
2018-03-02T16:06:42.721Z,-0.40
2018-03-02T16:09:08.938Z,-0.40
2018-03-02T16:11:35.166Z,-0.40
2018-03-02T16:14:01.406Z,-0.40
2018-03-02T16:16:27.622Z,-0.30
2018-03-02T16:18:53.861Z,-0.30
2018-03-02T16:21:20.109Z,-0.30
2018-03-02T16:23:46.355Z,-0.20
2018-03-02T16:26:12.641Z,-0.30
2018-03-02T16:28:39.605Z,-0.30
2018-03-02T16:31:06.576Z,-0.30
2018-03-02T16:33:32.799Z,-0.30
2018-03-02T16:35:59.790Z,-0.40
2018-03-02T16:38:26.041Z,-0.40
2018-03-02T16:40:52.268Z,-0.40
2018-03-02T16:43:18.531Z,-0.40
2018-03-02T16:45:44.753Z,-0.40
2018-03-02T16:48:11.008Z,-0.30
2018-03-02T16:50:37.263Z,-0.30
2018-03-02T16:53:04.387Z,-0.30
2018-03-02T16:55:30.642Z,-0.30
2018-03-02T16:57:56.880Z,-0.30
2018-03-02T17:00:23.163Z,-0.40
2018-03-02T17:02:49.445Z,-0.40
2018-03-02T17:05:15.959Z,-0.40
2018-03-02T17:07:42.963Z,-0.40
2018-03-02T17:10:09.232Z,-0.40
2018-03-02T17:12:35.527Z,-0.40
2018-03-02T17:15:01.760Z,-0.30
2018-03-02T17:17:28.029Z,-0.40
2018-03-02T17:19:54.252Z,-0.40
2018-03-02T17:22:20.485Z,-0.40
2018-03-02T17:24:46.745Z,-0.40
2018-03-02T17:27:12.987Z,-0.50
2018-03-02T17:29:39.248Z,-0.50
2018-03-02T17:32:05.473Z,-0.50
2018-03-02T17:34:31.766Z,-0.50
2018-03-02T17:36:57.979Z,-0.50
2018-03-02T17:39:24.270Z,-0.50
2018-03-02T17:41:50.530Z,-0.50
2018-03-02T17:44:16.772Z,-0.60
2018-03-02T17:46:43.117Z,-0.70
2018-03-02T17:49:09.383Z,-0.70
2018-03-02T17:51:35.611Z,-0.60
2018-03-02T17:54:01.850Z,-0.70
2018-03-02T17:56:28.148Z,-0.70
2018-03-02T17:58:55.156Z,-0.60
2018-03-02T18:01:21.414Z,-0.60
2018-03-02T18:03:47.650Z,-0.60
2018-03-02T18:06:13.941Z,-0.60
2018-03-02T18:08:40.197Z,-0.50
2018-03-02T18:11:06.536Z,-0.60
2018-03-02T18:13:33.480Z,-0.60
2018-03-02T18:15:59.747Z,-0.60
2018-03-02T18:18:26.014Z,-0.60
2018-03-02T18:20:52.301Z,-0.60
2018-03-02T18:23:19.325Z,-0.60
2018-03-02T18:25:45.561Z,-0.60
2018-03-02T18:28:11.826Z,-0.60
2018-03-02T18:30:38.791Z,-0.70
2018-03-02T18:33:05.821Z,-0.70
2018-03-02T18:35:32.103Z,-0.70
2018-03-02T18:37:58.422Z,-0.70
2018-03-02T18:40:25.410Z,-0.80
2018-03-02T18:42:51.639Z,-0.80
2018-03-02T18:45:17.889Z,-0.80
2018-03-02T18:47:44.142Z,-0.80
2018-03-02T18:50:10.389Z,-0.80
2018-03-02T18:52:36.667Z,-0.80
2018-03-02T18:55:02.933Z,-0.80
2018-03-02T18:57:29.937Z,-0.80
2018-03-02T18:59:56.293Z,-0.90
2018-03-02T19:02:22.892Z,-0.90
2018-03-02T19:04:49.862Z,-0.90
2018-03-02T19:07:16.090Z,-1.00
2018-03-02T19:09:43.091Z,-1.00
2018-03-02T19:12:09.370Z,-1.00
2018-03-02T19:14:35.651Z,-1.00
2018-03-02T19:17:01.927Z,-1.10
2018-03-02T19:19:29.311Z,-1.10
2018-03-02T19:21:55.605Z,-1.10
2018-03-02T19:24:21.882Z,-1.10
2018-03-02T19:26:48.228Z,-1.10
2018-03-02T19:29:14.554Z,-1.10
2018-03-02T19:31:40.895Z,-1.10
2018-03-02T19:34:07.174Z,-1.20
2018-03-02T19:36:34.208Z,-1.20
2018-03-02T19:39:00.629Z,-1.20
2018-03-02T19:41:26.951Z,-1.20
2018-03-02T19:43:53.253Z,-1.20
2018-03-02T19:46:19.627Z,-1.20
2018-03-02T19:48:46.024Z,-1.20
2018-03-02T19:51:12.326Z,-1.30
2018-03-02T19:53:38.911Z,-1.30
2018-03-02T19:56:05.206Z,-1.30
2018-03-02T19:58:31.509Z,-1.30
2018-03-02T20:00:57.851Z,-1.30
2018-03-02T20:03:24.141Z,-1.40
2018-03-02T20:05:50.467Z,-1.40
2018-03-02T20:08:17.776Z,-1.50
2018-03-02T20:10:44.082Z,-1.50
2018-03-02T20:13:10.453Z,-1.50
2018-03-02T20:15:36.767Z,-1.50
2018-03-02T20:18:03.461Z,-1.50
2018-03-02T20:20:29.821Z,-1.50
2018-03-02T20:22:56.200Z,-1.50
2018-03-02T20:25:23.206Z,-1.50
2018-03-02T20:27:49.520Z,-1.60
2018-03-02T20:30:15.888Z,-1.60
2018-03-02T20:32:42.997Z,-1.60
2018-03-02T20:35:10.112Z,-1.60
2018-03-02T20:37:36.436Z,-1.60
2018-03-02T20:40:02.767Z,-1.60
2018-03-02T20:42:29.034Z,-1.60
2018-03-02T20:44:55.300Z,-1.60
2018-03-02T20:47:21.666Z,-1.60
2018-03-02T20:49:47.952Z,-1.60
2018-03-02T20:52:14.258Z,-1.60
2018-03-02T20:54:41.345Z,-1.50
2018-03-02T20:57:07.698Z,-1.50
2018-03-02T20:59:33.982Z,-1.50
2018-03-02T21:02:00.230Z,-1.50
2018-03-02T21:04:27.324Z,-1.50
2018-03-02T21:06:53.610Z,-1.50
2018-03-02T21:09:19.942Z,-1.50
2018-03-02T21:11:46.221Z,-1.50
2018-03-02T21:14:13.252Z,-1.50
2018-03-02T21:16:39.530Z,-1.60
2018-03-02T21:19:06.548Z,-1.50
2018-03-02T21:21:32.880Z,-1.50
2018-03-02T21:23:59.122Z,-1.50
2018-03-02T21:26:25.366Z,-1.50
2018-03-02T21:28:52.390Z,-1.40
2018-03-02T21:31:18.743Z,-1.50
2018-03-02T21:33:45.030Z,-1.50
2018-03-02T21:36:11.247Z,-1.50
2018-03-02T21:38:38.302Z,-1.50
2018-03-02T21:41:04.531Z,-1.50
2018-03-02T21:43:30.797Z,-1.50
2018-03-02T21:45:57.065Z,-1.50
2018-03-02T21:48:23.297Z,-1.50
2018-03-02T21:50:49.570Z,-1.50
2018-03-02T21:53:15.843Z,-1.50
2018-03-02T21:55:42.128Z,-1.50
2018-03-02T21:58:09.128Z,-1.50
2018-03-02T22:00:35.392Z,-1.50
2018-03-02T22:03:01.626Z,-1.50
2018-03-02T22:05:27.844Z,-1.50
2018-03-02T22:07:54.090Z,-1.50
2018-03-02T22:10:20.298Z,-1.50
2018-03-02T22:12:46.537Z,-1.50
2018-03-02T22:15:12.756Z,-1.50
2018-03-02T22:17:38.995Z,-1.40
2018-03-02T22:20:05.241Z,-1.40
2018-03-02T22:22:31.896Z,-1.40
2018-03-02T22:24:58.121Z,-1.40
2018-03-02T22:27:24.339Z,-1.40
2018-03-02T22:29:50.551Z,-1.40
2018-03-02T22:32:16.766Z,-1.40
2018-03-02T22:34:42.995Z,-1.40
2018-03-02T22:37:09.202Z,-1.40
2018-03-02T22:39:35.517Z,-1.40
2018-03-02T22:42:01.676Z,-1.40
2018-03-02T22:44:27.892Z,-1.40
2018-03-02T22:46:54.160Z,-1.40
2018-03-02T22:49:20.436Z,-1.40
2018-03-02T22:51:46.656Z,-1.30
2018-03-02T22:54:12.880Z,-1.30
2018-03-02T22:56:39.107Z,-1.30
2018-03-02T22:59:05.338Z,-1.30
2018-03-02T23:01:31.556Z,-1.30
2018-03-02T23:03:58.505Z,-1.40
2018-03-02T23:06:24.738Z,-1.40
2018-03-02T23:08:50.955Z,-1.40
2018-03-02T23:11:17.160Z,-1.40
2018-03-02T23:13:43.403Z,-1.40
2018-03-02T23:16:09.636Z,-1.40
2018-03-02T23:18:35.855Z,-1.30
2018-03-02T23:21:02.867Z,-1.30
2018-03-02T23:23:29.125Z,-1.30
2018-03-02T23:25:55.363Z,-1.30
2018-03-02T23:28:22.316Z,-1.30
2018-03-02T23:30:48.537Z,-1.30
2018-03-02T23:33:14.786Z,-1.30
2018-03-02T23:35:41.012Z,-1.30
2018-03-02T23:38:07.271Z,-1.30
2018-03-02T23:40:33.470Z,-1.20
2018-03-02T23:42:59.727Z,-1.20
2018-03-02T23:45:25.965Z,-1.20
2018-03-02T23:47:52.184Z,-1.10
2018-03-02T23:50:18.414Z,-1.10
2018-03-02T23:52:45.370Z,-1.10
2018-03-02T23:55:12.352Z,-1.10
2018-03-02T23:57:38.568Z,-1.10
